Terminal Aerodrome Forecast
Issued by NWS

Home | Current Version | Previous Version | Text Only | Print | Product List | Glossary On
Versions: 1 2 3 4 5 6 7 8 9 10 11 12
213
FTUS46 KPDT 272324
TAFDLS
TAF
KDLS 272324Z 2800/2824 33010KT P6SM VCSH BKN040 OVC080
     FM280800 30012KT P6SM BKN080
     FM282000 30014G22KT P6SM SCT080 BKN140=

USA.gov is the U.S. government's official web portal to all federal, state and local government web resources and services.